Time;durP1;ratioP1;P1;durP2;ratioP2;P2;SDS_P1;SDS_P2;PMS_P1;PMS_P2;Temp;Humidity;BMP_temperature;BMP_pressure;BME280_temperature;BME280_humidity;BME280_pressure;Samples;Min_cycle;Max_cycle;Signal;HPM_P1;HPM_P2
2021/03/20 00:00:51;;;;;;;4.75;1.85;;;;;;;-3.52;81.80;102058.38;4966701;28;20068;-75
2021/03/20 00:03:19;;;;;;;7.97;1.80;;;;;;;-3.48;81.69;102059.34;4981345;28;20138;-75
2021/03/20 00:05:46;;;;;;;9.88;1.98;;;;;;;-3.41;81.29;102072.38;4963851;28;20046;-75
2021/03/20 00:08:17;;;;;;;5.78;1.73;;;;;;;-3.38;80.79;102051.84;4974925;28;20632;-75
2021/03/20 00:10:44;;;;;;;5.18;1.63;;;;;;;-3.25;80.78;102065.84;4964013;28;20054;-75
2021/03/20 00:13:12;;;;;;;6.07;1.73;;;;;;;-3.27;80.48;102064.06;4928915;28;20077;-75
2021/03/20 00:15:39;;;;;;;3.55;1.58;;;;;;;-3.34;81.34;102063.06;4964521;28;20415;-76
2021/03/20 00:18:06;;;;;;;6.13;1.85;;;;;;;-3.24;80.39;102070.16;4962002;28;20052;-75
2021/03/20 00:20:36;;;;;;;3.65;1.55;;;;;;;-3.17;79.74;102069.44;4983629;28;20046;-75
2021/03/20 00:23:04;;;;;;;8.98;1.65;;;;;;;-3.25;79.71;102072.69;4960778;28;20046;-75
2021/03/20 00:25:31;;;;;;;3.72;1.42;;;;;;;-3.29;80.28;102066.59;4981473;28;20053;-76
2021/03/20 00:27:59;;;;;;;8.07;2.83;;;;;;;-3.24;80.34;102070.16;4944075;28;20049;-73
2021/03/20 00:30:27;;;;;;;4.53;1.17;;;;;;;-3.33;80.53;102057.97;4982678;28;20141;-75
2021/03/20 00:32:53;;;;;;;4.75;1.73;;;;;;;-3.31;80.54;102064.00;4945577;28;20050;-75
2021/03/20 00:35:22;;;;;;;2.63;1.35;;;;;;;-3.40;80.99;102055.22;4983409;28;20181;-76
2021/03/20 00:37:56;;;;;;;8.80;1.52;;;;;;;-3.42;81.13;102060.34;4968728;28;20177;-76
2021/03/20 00:40:27;;;;;;;10.55;2.00;;;;;;;-3.35;80.35;102071.63;4964250;28;20544;-76
2021/03/20 00:42:54;;;;;;;7.85;1.95;;;;;;;-3.32;80.00;102069.13;4959692;28;20059;-75
2021/03/20 00:45:23;;;;;;;5.25;1.52;;;;;;;-3.24;79.81;102074.41;4949420;28;20565;-76
2021/03/20 00:47:49;;;;;;;5.00;2.25;;;;;;;-3.38;80.80;102068.97;4962163;28;20077;-75
2021/03/20 00:50:20;;;;;;;5.43;1.67;;;;;;;-3.35;80.38;102069.06;4951861;28;20065;-73
2021/03/20 00:52:46;;;;;;;5.72;1.92;;;;;;;-3.34;80.71;102073.38;4972128;28;20054;-76
2021/03/20 00:55:13;;;;;;;6.68;1.33;;;;;;;-3.34;80.35;102071.66;4991790;28;20066;-75
2021/03/20 00:57:40;;;;;;;4.80;2.13;;;;;;;-3.29;80.27;102078.59;4946867;28;20415;-76
2021/03/20 01:00:14;;;;;;;5.80;1.10;;;;;;;-3.15;79.64;102074.63;4961868;28;20506;-75
2021/03/20 01:02:41;;;;;;;7.78;1.95;;;;;;;-3.19;80.22;102067.69;4960477;28;20066;-75
2021/03/20 01:05:09;;;;;;;6.13;1.90;;;;;;;-3.25;80.02;102050.38;4946687;28;20353;-76
2021/03/20 01:07:36;;;;;;;6.57;1.67;;;;;;;-3.13;80.14;102049.78;4958749;28;20046;-75
2021/03/20 01:10:06;;;;;;;6.85;1.98;;;;;;;-3.13;79.90;102060.94;4946441;28;20062;-75
2021/03/20 01:12:33;;;;;;;3.78;1.45;;;;;;;-3.06;79.82;102059.38;4942929;28;20406;-75
2021/03/20 01:15:09;;;;;;;4.47;1.25;;;;;;;-3.02;79.37;102060.28;4944770;28;20057;-76
2021/03/20 01:17:39;;;;;;;;;;;;;;;-2.99;79.67;102060.34;4959939;28;20054;-76
2021/03/20 01:20:10;;;;;;;7.55;1.30;;;;;;;-3.02;79.57;102052.53;4959817;28;20016;-76
2021/03/20 01:22:40;;;;;;;4.50;1.45;;;;;;;-3.16;80.85;102060.00;4946615;28;20067;-77
2021/03/20 01:25:08;;;;;;;6.05;1.70;;;;;;;-3.12;80.08;102056.66;4944362;28;20140;-75
2021/03/20 01:27:35;;;;;;;2.78;1.30;;;;;;;-3.08;79.95;102055.88;4951094;28;20042;-74
2021/03/20 01:30:08;;;;;;;5.55;1.48;;;;;;;-3.03;79.53;102059.41;4973135;28;20283;-75
2021/03/20 01:32:35;;;;;;;2.33;1.48;;;;;;;-3.13;80.27;102062.66;4956319;28;20061;-75
2021/03/20 01:35:03;;;;;;;5.78;1.33;;;;;;;-3.10;80.76;102060.16;4982722;28;20136;-76
2021/03/20 01:37:29;;;;;;;6.10;1.70;;;;;;;-3.10;80.23;102060.16;4979532;28;20060;-75
2021/03/20 01:39:56;;;;;;;4.20;1.27;;;;;;;-3.14;80.31;102048.03;4964380;28;20054;-75
2021/03/20 01:42:23;;;;;;;5.50;1.40;;;;;;;-3.01;80.46;102044.88;4943029;28;20226;-75
2021/03/20 01:45:24;;;;;;;4.35;1.33;;;;;;;-2.94;79.83;102043.25;4978165;28;20042;-75
2021/03/20 01:48:03;;;;;;;5.97;1.52;;;;;;;-3.12;80.53;102041.19;4963299;28;20844;-75
2021/03/20 01:50:41;;;;;;;3.92;1.48;;;;;;;-3.11;80.69;102042.94;4962851;28;20070;-76
2021/03/20 01:53:35;;;;;;;8.65;1.70;;;;;;;-3.07;80.31;102037.88;4958096;28;20073;-74
2021/03/20 01:56:05;;;;;;;6.10;1.48;;;;;;;-3.15;80.49;102049.75;4944503;28;20507;-74
2021/03/20 01:58:33;;;;;;;10.85;1.80;;;;;;;-3.03;80.30;102053.41;4941139;28;20134;-76
2021/03/20 02:01:17;;;;;;;3.53;1.58;;;;;;;-2.91;79.88;102053.63;4963323;28;20072;-76
2021/03/20 02:03:44;;;;;;;7.13;1.63;;;;;;;-2.95;79.92;102047.56;4974417;28;20355;-75
2021/03/20 02:06:11;;;;;;;5.40;1.45;;;;;;;-2.92;80.09;102046.75;4957758;28;20048;-76
2021/03/20 02:08:39;;;;;;;5.35;1.80;;;;;;;-2.72;80.22;102039.38;4956621;28;20485;-75
2021/03/20 02:11:25;;;;;;;4.35;1.40;;;;;;;-2.75;78.72;102039.31;4958668;28;20046;-75
2021/03/20 02:14:03;;;;;;;8.13;1.60;;;;;;;-2.86;78.77;102039.13;4989127;28;20117;-75
2021/03/20 02:16:37;;;;;;;5.93;1.52;;;;;;;-2.89;79.14;102042.50;4959558;28;20058;-75
2021/03/20 02:19:21;;;;;;;7.15;1.63;;;;;;;-2.99;79.81;102043.19;4956625;28;20392;-75
2021/03/20 02:22:03;;;;;;;4.70;1.60;;;;;;;-2.95;80.03;102042.41;4957322;28;20190;-74
2021/03/20 02:24:40;;;;;;;6.07;1.10;;;;;;;-3.00;80.01;102045.72;4960335;28;20065;-74
2021/03/20 02:27:40;;;;;;;4.55;1.65;;;;;;;-2.91;79.87;102051.06;4954165;28;20046;-74
2021/03/20 02:30:19;;;;;;;5.25;1.40;;;;;;;-2.88;79.64;102049.41;4959534;28;20053;-75
2021/03/20 02:33:09;;;;;;;4.63;1.48;;;;;;;-2.84;79.72;102047.75;4958086;28;20083;-75
2021/03/20 02:35:49;;;;;;;4.63;1.33;;;;;;;-2.85;80.58;102041.72;4977899;28;20418;-76
2021/03/20 02:38:45;;;;;;;5.63;1.50;;;;;;;-2.90;80.01;102030.47;4955102;28;20152;-75
2021/03/20 02:41:31;;;;;;;6.67;1.50;;;;;;;-2.94;79.79;102032.97;4942599;28;20100;-76
2021/03/20 02:44:04;;;;;;;4.25;1.83;;;;;;;-2.83;80.42;102024.59;4960910;28;20059;-76
2021/03/20 02:46:38;;;;;;;6.50;1.42;;;;;;;-2.72;79.53;102029.06;4957805;28;20519;-75
2021/03/20 02:49:18;;;;;;;6.00;1.52;;;;;;;-2.78;79.03;102024.69;4958980;28;20537;-74
2021/03/20 02:51:53;;;;;;;7.03;1.83;;;;;;;-2.82;79.76;102025.47;4956763;28;20326;-77
2021/03/20 02:54:42;;;;;;;4.15;1.33;;;;;;;-2.85;79.71;102028.84;4945636;28;20326;-76
2021/03/20 02:57:13;;;;;;;3.92;1.00;;;;;;;-2.89;79.86;102036.47;4940281;28;20050;-76
2021/03/20 02:59:43;;;;;;;4.30;1.63;;;;;;;-2.88;80.27;102035.63;4971404;28;20617;-76
2021/03/20 03:02:11;;;;;;;3.15;1.10;;;;;;;-2.94;80.31;102036.41;4957540;28;20046;-75
2021/03/20 03:04:43;;;;;;;6.63;1.55;;;;;;;-2.89;80.20;102029.63;4960077;28;20233;-76
2021/03/20 03:07:16;;;;;;;7.50;1.70;;;;;;;-2.95;80.28;102037.25;4955571;28;20522;-75
2021/03/20 03:10:08;;;;;;;4.63;1.75;;;;;;;-2.97;80.68;102027.75;4960654;28;20058;-76
2021/03/20 03:12:46;;;;;;;6.55;1.40;;;;;;;-2.94;80.60;102028.66;4933595;28;20081;-75
2021/03/20 03:15:14;;;;;;;6.25;2.00;;;;;;;-2.94;79.59;102032.97;4980834;28;20179;-75
2021/03/20 03:17:46;;;;;;;5.78;1.77;;;;;;;-2.94;80.16;102026.09;4960218;28;20062;-75
2021/03/20 03:20:21;;;;;;;9.10;1.95;;;;;;;-2.72;79.88;102026.50;4963590;28;20046;-75
2021/03/20 03:22:51;;;;;;;4.93;1.70;;;;;;;-2.69;79.21;102026.56;4960571;28;20430;-76
2021/03/20 03:25:21;;;;;;;5.47;1.50;;;;;;;-2.70;79.16;102030.84;4944774;28;20141;-75
2021/03/20 03:27:49;;;;;;;12.27;1.88;;;;;;;-2.78;79.42;102029.84;4943225;28;20073;-75
2021/03/20 03:30:18;;;;;;;2.67;1.30;;;;;;;-2.76;79.21;102032.44;4965708;28;20058;-75
2021/03/20 03:32:51;;;;;;;2.85;1.42;;;;;;;-2.76;79.31;102035.00;4946666;28;20050;-76
2021/03/20 03:35:38;;;;;;;5.70;1.65;;;;;;;-2.78;79.37;102041.84;4966076;28;20560;-76
2021/03/20 03:38:40;;;;;;;6.85;2.05;;;;;;;-2.84;78.92;102050.31;4960053;28;20062;-76
2021/03/20 03:41:33;;;;;;;8.13;1.73;;;;;;;-2.81;79.66;102050.38;4983844;28;20058;-78
2021/03/20 03:44:02;;;;;;;7.20;1.58;;;;;;;-2.79;79.48;102046.16;4963646;28;20046;-75
2021/03/20 03:46:32;;;;;;;7.45;1.63;;;;;;;-2.80;79.42;102049.53;4950771;28;20493;-74
2021/03/20 03:49:01;;;;;;;7.55;1.48;;;;;;;-2.74;79.03;102052.25;4962814;28;20060;-75
2021/03/20 03:51:28;;;;;;;3.20;1.30;;;;;;;-2.83;79.41;102057.25;4979698;28;20058;-75
2021/03/20 03:53:57;;;;;;;5.20;2.35;;;;;;;-2.77;79.32;102056.47;4963326;28;20118;-76
2021/03/20 03:57:10;;;;;;;5.13;1.65;;;;;;;-2.88;79.07;102048.53;4960174;28;20054;-75
2021/03/20 03:59:43;;;;;;;4.20;1.35;;;;;;;-2.90;78.96;102048.50;4930471;28;20049;-76
2021/03/20 04:02:22;;;;;;;4.45;1.38;;;;;;;-2.78;79.16;102044.44;4979352;28;20077;-75
2021/03/20 04:05:04;;;;;;;7.07;1.75;;;;;;;-2.72;79.10;102052.28;4980698;28;20605;-76
2021/03/20 04:07:53;;;;;;;3.88;1.30;;;;;;;-2.78;79.42;102045.31;4978586;28;20051;-75
2021/03/20 04:10:30;;;;;;;4.25;1.50;;;;;;;-2.68;79.13;102047.19;4947990;28;20771;-76
2021/03/20 04:13:24;;;;;;;10.10;2.05;;;;;;;-2.73;79.22;102046.25;4962666;28;20371;-75
2021/03/20 04:16:00;;;;;;;7.28;1.50;;;;;;;-2.63;79.37;102045.56;4990027;28;20070;-78
2021/03/20 04:19:00;;;;;;;10.70;1.92;;;;;;;-2.72;79.20;102053.13;4961254;28;20192;-78
2021/03/20 04:21:37;;;;;;;4.82;1.73;;;;;;;-2.74;79.57;102048.81;4986055;28;20066;-78
2021/03/20 04:24:26;;;;;;;3.60;1.42;;;;;;;-2.80;78.99;102042.69;4945781;28;20418;-76
2021/03/20 04:27:12;;;;;;;5.82;1.42;;;;;;;-2.69;78.90;102035.16;4987356;28;20148;-80
2021/03/20 04:30:11;;;;;;;3.75;1.30;;;;;;;-2.69;78.77;102047.19;4963584;28;20426;-76
2021/03/20 04:32:50;;;;;;;5.63;1.85;;;;;;;-2.77;78.50;102046.16;4959085;28;20053;-76
2021/03/20 04:35:31;;;;;;;8.50;1.95;;;;;;;-2.66;78.55;102032.63;4961649;28;20051;-77
2021/03/20 04:38:00;;;;;;;5.95;2.00;;;;;;;-2.64;78.08;102028.38;4960212;28;20058;-77
2021/03/20 04:40:45;;;;;;;5.03;1.77;;;;;;;-2.62;78.56;102036.97;4966721;28;20292;-77
2021/03/20 04:43:15;;;;;;;7.57;1.85;;;;;;;-2.71;78.02;102041.13;4949557;28;20561;-77
2021/03/20 04:45:46;;;;;;;7.43;2.50;;;;;;;-2.59;78.44;102038.75;4962609;28;20058;-76
2021/03/20 04:48:18;;;;;;;10.05;1.40;;;;;;;-2.66;77.89;102047.22;4943005;28;20583;-77
2021/03/20 04:50:47;;;;;;;6.10;2.00;;;;;;;-2.48;78.23;102036.34;4949460;28;20450;-77
2021/03/20 04:53:14;;;;;;;7.05;2.00;;;;;;;-2.33;77.77;102044.38;4979245;28;20597;-76
2021/03/20 04:55:41;;;;;;;5.10;1.60;;;;;;;-2.34;77.69;102040.06;4972164;28;20204;-78
2021/03/20 04:58:30;;;;;;;7.57;2.92;;;;;;;-2.47;78.17;102046.72;4927811;28;20560;-78
2021/03/20 05:01:02;;;;;;;9.88;1.98;;;;;;;-2.31;77.60;102050.41;4987573;28;20556;-77
2021/03/20 05:03:38;;;;;;;6.38;1.60;;;;;;;-2.39;77.85;102052.00;4976320;28;20411;-78
2021/03/20 05:06:08;;;;;;;5.55;2.75;;;;;;;-2.48;77.78;102057.84;4962068;28;20062;-77
2021/03/20 05:08:41;;;;;;;6.20;1.80;;;;;;;-2.25;77.15;102054.81;4961784;28;20054;-77
2021/03/20 05:11:26;;;;;;;6.63;1.75;;;;;;;-2.34;77.57;102043.50;4982773;28;20050;-79
2021/03/20 05:13:59;;;;;;;6.03;1.45;;;;;;;-2.14;76.82;102050.69;4962825;28;20927;-77
2021/03/20 05:16:41;;;;;;;7.40;1.40;;;;;;;-2.28;76.78;102039.28;4959957;28;20513;-77
2021/03/20 05:19:08;;;;;;;6.40;1.70;;;;;;;-2.30;77.19;102045.31;4963367;28;20499;-79
2021/03/20 05:21:39;;;;;;;5.93;1.50;;;;;;;-2.23;77.36;102045.38;4960267;28;20054;-76
2021/03/20 05:24:07;;;;;;;6.95;1.70;;;;;;;-2.05;76.69;102049.13;4943025;28;20049;-78
2021/03/20 05:26:35;;;;;;;12.13;2.47;;;;;;;-1.92;76.06;102054.50;4957940;28;20062;-76
2021/03/20 05:29:01;;;;;;;7.32;1.70;;;;;;;-2.17;75.90;102040.31;4969572;28;20506;-78
2021/03/20 05:31:30;;;;;;;6.05;1.92;;;;;;;-2.28;76.51;102050.47;4962863;28;20054;-78
2021/03/20 05:33:57;;;;;;;9.48;1.88;;;;;;;-2.27;76.68;102049.63;4963209;28;20116;-77
2021/03/20 05:36:24;;;;;;;4.82;1.65;;;;;;;-2.19;75.88;102057.50;4943913;28;20054;-77
2021/03/20 05:38:52;;;;;;;4.72;1.60;;;;;;;-2.12;75.55;102054.16;4957795;28;20066;-76
2021/03/20 05:41:44;;;;;;;5.63;1.80;;;;;;;-2.01;74.78;102056.94;4944775;28;20054;-77
2021/03/20 05:44:48;;;;;;;5.50;1.52;;;;;;;-1.97;74.78;102058.72;4987034;28;20073;-78
2021/03/20 05:47:39;;;;;;;5.70;1.20;;;;;;;-1.86;74.80;102062.31;4959539;28;20058;-76
2021/03/20 05:50:31;;;;;;;4.90;1.90;;;;;;;-1.68;74.09;102065.16;4957540;28;20058;-78
2021/03/20 05:53:17;;;;;;;5.18;1.88;;;;;;;-1.49;73.52;102065.41;4960079;28;20059;-78
2021/03/20 05:55:51;;;;;;;6.07;1.70;;;;;;;-1.25;73.14;102063.19;4987046;28;20141;-78
2021/03/20 05:58:39;;;;;;;7.63;2.38;;;;;;;-0.88;71.31;102061.03;4926132;28;20054;-75
2021/03/20 06:01:34;;;;;;;5.60;1.83;;;;;;;-0.29;69.62;102058.16;4977930;28;20061;-76
2021/03/20 06:04:11;;;;;;;2.78;1.55;;;;;;;-0.19;68.94;102057.38;4980990;28;20399;-77
2021/03/20 06:07:06;;;;;;;5.32;1.83;;;;;;;-0.28;69.24;102059.88;4953915;28;20054;-79
2021/03/20 06:10:03;;;;;;;4.05;1.95;;;;;;;-0.41;69.51;102052.88;4979306;28;20046;-79
2021/03/20 06:12:48;;;;;;;;;;;;;;;-0.46;69.55;102060.59;4971585;28;20363;-77
2021/03/20 06:15:33;;;;;;;6.10;1.33;;;;;;;-0.52;70.30;102071.75;4984339;28;20298;-78
2021/03/20 06:18:31;;;;;;;7.38;2.35;;;;;;;-0.52;70.22;102078.66;4966943;28;20453;-77
2021/03/20 06:21:03;;;;;;;4.70;1.70;;;;;;;-0.52;69.95;102083.81;4978018;28;20054;-76
2021/03/20 06:23:44;;;;;;;4.80;1.70;;;;;;;-0.62;69.89;102082.88;4985509;28;20056;-75
2021/03/20 06:26:18;;;;;;;8.70;2.10;;;;;;;-0.55;70.43;102073.44;4969953;28;20059;-76
2021/03/20 06:29:20;;;;;;;5.15;1.83;;;;;;;-0.38;69.33;102076.19;4961665;28;20053;-76
2021/03/20 06:31:59;;;;;;;4.82;1.58;;;;;;;-0.23;68.01;102081.50;4971256;28;20050;-76
2021/03/20 06:34:35;;;;;;;2.88;1.25;;;;;;;-0.32;68.45;102081.41;4972726;28;20435;-76
2021/03/20 06:37:10;;;;;;;7.88;2.60;;;;;;;0.12;67.16;102075.75;4973806;28;20050;-76
2021/03/20 06:39:48;;;;;;;6.97;1.90;;;;;;;0.02;66.51;102074.81;4973218;28;20450;-75
2021/03/20 06:42:25;;;;;;;4.13;1.65;;;;;;;0.30;65.13;102070.69;4990625;28;20682;-76
2021/03/20 06:44:59;;;;;;;4.15;2.28;;;;;;;0.65;65.79;102068.31;4975032;28;21651;-76
2021/03/20 06:47:29;;;;;;;8.20;1.80;;;;;;;1.19;63.93;102066.78;4984896;28;20085;-76
2021/03/20 06:50:05;;;;;;;8.48;1.80;;;;;;;1.52;62.23;102063.41;4980615;28;20137;-76
2021/03/20 06:52:34;;;;;;;5.10;1.73;;;;;;;1.82;60.85;102061.69;4987233;28;20051;-77
2021/03/20 06:55:17;;;;;;;7.18;1.27;;;;;;;2.06;60.53;102060.81;5000150;28;20057;-77
2021/03/20 06:57:46;;;;;;;9.27;1.77;;;;;;;1.87;59.00;102054.78;4959790;28;20043;-77
2021/03/20 07:00:30;;;;;;;9.48;1.67;;;;;;;2.11;59.47;102046.09;4967270;28;20054;-75
2021/03/20 07:03:07;;;;;;;9.32;2.30;;;;;;;2.09;58.70;102037.44;4983578;28;20054;-75
2021/03/20 07:05:56;;;;;;;5.68;1.83;;;;;;;2.61;57.43;102039.03;5000866;28;20141;-75
2021/03/20 07:08:59;;;;;;;4.90;1.73;;;;;;;2.93;54.18;102037.19;4971442;28;20050;-77
2021/03/20 07:11:29;;;;;;;4.80;1.42;;;;;;;3.81;52.98;102040.09;4981632;28;20062;-74
2021/03/20 07:14:42;;;;;;;6.35;2.30;;;;;;;5.44;48.39;102032.09;4974744;28;20124;-75
2021/03/20 07:17:21;;;;;;;7.63;1.58;;;;;;;7.05;44.27;102030.00;4980897;28;20060;-76
2021/03/20 07:19:57;;;;;;;6.72;1.70;;;;;;;9.45;39.50;102027.97;5000638;28;20053;-74
2021/03/20 07:22:37;;;;;;;;;;;;;;;10.31;35.94;102027.75;4972253;28;20507;-75
2021/03/20 07:25:28;;;;;;;4.78;1.70;;;;;;;10.75;34.69;102036.69;4990978;28;20324;-73
2021/03/20 07:28:13;;;;;;;6.43;1.50;;;;;;;10.11;34.48;102038.97;4983409;28;20194;-77
2021/03/20 07:30:51;;;;;;;4.15;1.80;;;;;;;6.58;41.80;102050.19;4974111;28;20085;-77
2021/03/20 07:33:25;;;;;;;4.18;1.52;;;;;;;7.60;40.28;102048.84;4978055;28;20058;-75
2021/03/20 07:35:55;;;;;;;7.55;1.73;;;;;;;8.40;37.50;102046.88;4983237;28;20049;-76
2021/03/20 07:38:29;;;;;;;3.45;1.40;;;;;;;8.90;37.29;102044.59;4973659;28;20142;-75
2021/03/20 07:41:11;;;;;;;5.13;1.50;;;;;;;10.74;33.73;102047.28;4991039;28;20062;-77
2021/03/20 07:43:38;;;;;;;6.47;1.88;;;;;;;10.81;33.93;102043.53;4975736;28;20061;-76
2021/03/20 07:46:10;;;;;;;8.32;1.98;;;;;;;10.94;32.19;102049.16;4999052;28;20050;-75
2021/03/20 07:48:38;;;;;;;5.18;1.92;;;;;;;9.44;35.83;102036.78;4990793;28;20065;-76
2021/03/20 07:51:13;;;;;;;7.95;1.98;;;;;;;8.43;36.31;102045.03;4978688;28;20042;-76
2021/03/20 07:53:48;;;;;;;5.85;1.50;;;;;;;7.55;36.63;102051.59;5001492;28;20073;-76
2021/03/20 07:56:20;;;;;;;6.53;1.97;;;;;;;6.27;38.39;102055.13;4977558;28;20059;-76
2021/03/20 07:59:01;;;;;;;6.78;1.83;;;;;;;8.14;36.43;102056.25;4965387;28;21024;-76
2021/03/20 08:01:32;;;;;;;6.15;1.55;;;;;;;10.30;32.40;102047.09;4982679;28;20075;-76
2021/03/20 08:04:04;;;;;;;4.72;1.60;;;;;;;10.71;31.87;102044.75;4971016;28;20077;-76
2021/03/20 08:06:30;;;;;;;3.90;1.40;;;;;;;9.34;31.97;102051.13;4992648;28;20074;-77
2021/03/20 08:09:22;;;;;;;5.93;1.70;;;;;;;8.53;33.71;102057.00;4983189;28;20409;-77
2021/03/20 08:11:59;;;;;;;7.60;1.42;;;;;;;9.80;32.43;102052.28;4973203;28;20067;-74
2021/03/20 08:14:50;;;;;;;3.28;1.15;;;;;;;9.32;32.54;102061.69;4977530;28;20057;-75
2021/03/20 08:17:19;;;;;;;13.40;1.90;;;;;;;8.55;33.84;102062.19;4979009;28;20527;-74
2021/03/20 08:19:46;;;;;;;7.43;1.10;;;;;;;8.62;33.76;102055.88;4957315;28;20072;-75
2021/03/20 08:22:32;;;;;;;8.88;1.50;;;;;;;7.49;35.16;102051.75;4957452;28;20669;-74
2021/03/20 08:25:24;;;;;;;5.50;1.45;;;;;;;7.47;35.96;102050.91;4973908;28;20037;-75
2021/03/20 08:27:59;;;;;;;8.35;1.88;;;;;;;7.70;36.22;102059.97;4992752;28;20403;-76
2021/03/20 08:30:43;;;;;;;3.03;1.30;;;;;;;7.61;35.60;102063.72;4946322;28;20489;-75
2021/03/20 08:33:24;;;;;;;12.20;1.55;;;;;;;6.51;37.76;102071.25;4992252;28;20050;-76
2021/03/20 08:35:59;;;;;;;4.97;1.10;;;;;;;6.00;38.08;102066.09;4996288;28;20049;-76
2021/03/20 08:39:08;;;;;;;6.68;1.30;;;;;;;6.23;37.61;102063.94;4985769;28;20140;-74
2021/03/20 08:41:55;;;;;;;7.32;1.33;;;;;;;6.24;38.20;102065.66;4978534;28;20062;-75
2021/03/20 08:44:45;;;;;;;2.75;1.10;;;;;;;6.69;37.86;102059.59;4936902;28;20072;-75
2021/03/20 08:47:36;;;;;;;3.80;1.20;;;;;;;6.44;38.36;102061.78;4977503;28;20077;-76
2021/03/20 08:50:22;;;;;;;3.67;1.45;;;;;;;6.32;37.00;102062.91;4991470;28;20049;-76
2021/03/20 08:53:00;;;;;;;4.43;1.63;;;;;;;5.41;37.20;102063.50;5005496;28;20528;-75
2021/03/20 08:56:05;;;;;;;9.15;1.10;;;;;;;5.87;36.56;102065.38;4987136;28;20087;-76
2021/03/20 08:58:38;;;;;;;5.13;1.20;;;;;;;5.66;37.11;102063.97;4983814;28;20042;-74
2021/03/20 09:01:22;;;;;;;7.70;1.10;;;;;;;5.81;35.82;102063.75;4988961;28;20050;-76
2021/03/20 09:03:52;;;;;;;13.93;2.40;;;;;;;6.00;36.49;102066.94;4997683;28;20084;-77
2021/03/20 09:06:29;;;;;;;5.25;1.30;;;;;;;5.57;37.31;102057.13;4980200;28;20088;-74
2021/03/20 09:09:01;;;;;;;4.85;1.02;;;;;;;4.52;38.27;102054.19;4967980;28;20502;-75
2021/03/20 09:11:35;;;;;;;12.05;1.73;;;;;;;5.40;44.04;102064.34;4975946;28;20062;-75
2021/03/20 09:14:13;;;;;;;18.80;2.25;;;;;;;5.96;37.55;102060.03;4972856;28;20058;-76
2021/03/20 09:16:50;;;;;;;14.85;1.90;;;;;;;5.26;38.35;102067.16;4979505;28;20054;-75
2021/03/20 09:19:32;;;;;;;15.48;2.10;;;;;;;5.76;40.11;102060.34;4978488;28;20407;-75
2021/03/20 09:22:11;;;;;;;7.40;3.08;;;;;;;5.46;39.49;102068.66;4973052;28;20081;-77
2021/03/20 09:25:04;;;;;;;22.70;2.50;;;;;;;5.90;38.62;102069.69;4973574;28;20046;-74
2021/03/20 09:28:11;;;;;;;5.47;1.67;;;;;;;5.17;40.21;102072.50;4957591;28;20050;-76
2021/03/20 09:30:46;;;;;;;8.60;2.35;;;;;;;5.05;40.91;102084.00;4990229;28;20054;-74
2021/03/20 09:33:27;;;;;;;24.67;2.22;;;;;;;5.69;39.59;102077.00;4992639;28;20065;-75
2021/03/20 09:35:54;;;;;;;14.52;2.30;;;;;;;6.38;38.93;102072.38;4996274;28;20043;-74
2021/03/20 09:38:42;;;;;;;12.95;1.65;;;;;;;5.51;39.52;102075.53;4995455;28;20134;-76
2021/03/20 09:41:29;;;;;;;13.90;1.80;;;;;;;5.47;38.67;102073.84;4967987;28;20090;-75
2021/03/20 09:43:57;;;;;;;10.65;1.63;;;;;;;5.59;38.38;102084.13;5002174;28;20173;-74
2021/03/20 09:46:40;;;;;;;4.43;1.15;;;;;;;5.63;37.92;102071.88;4974798;28;20068;-75
2021/03/20 09:49:07;;;;;;;6.75;1.33;;;;;;;5.70;37.23;102070.88;4985605;28;20137;-75
2021/03/20 09:51:56;;;;;;;3.80;1.45;;;;;;;5.87;38.14;102065.38;4996452;28;20054;-75
2021/03/20 09:54:35;;;;;;;5.85;1.05;;;;;;;4.59;38.50;102070.59;4999323;28;20050;-76
2021/03/20 09:57:05;;;;;;;6.80;1.33;;;;;;;5.36;38.61;102067.03;4987232;28;20050;-76
2021/03/20 09:59:34;;;;;;;4.00;1.00;;;;;;;5.42;38.16;102065.22;4977968;28;20086;-74
2021/03/20 10:02:03;;;;;;;12.38;1.60;;;;;;;5.43;38.02;102061.72;4982929;28;20482;-74
2021/03/20 10:04:52;;;;;;;12.23;1.35;;;;;;;5.15;38.76;102065.59;4985862;28;20068;-74
2021/03/20 10:07:22;;;;;;;5.60;1.35;;;;;;;4.56;38.92;102066.31;4987977;28;20066;-73
2021/03/20 10:10:23;;;;;;;2.15;1.10;;;;;;;4.82;39.34;102060.78;5003044;28;20438;-75
2021/03/20 10:12:50;;;;;;;4.30;1.25;;;;;;;5.18;38.02;102055.97;4975227;28;20105;-75
2021/03/20 10:15:31;;;;;;;9.35;1.25;;;;;;;5.50;36.62;102047.69;4977638;28;20490;-74
2021/03/20 10:18:04;;;;;;;11.10;1.60;;;;;;;5.46;36.82;102048.63;5007661;28;20108;-75
2021/03/20 10:20:54;;;;;;;10.07;1.20;;;;;;;5.50;37.17;102046.81;5006359;28;20061;-76
2021/03/20 10:23:42;;;;;;;4.18;1.50;;;;;;;5.23;36.79;102050.69;4970675;28;20062;-76
2021/03/20 10:26:28;;;;;;;8.93;1.30;;;;;;;4.98;37.95;102051.00;4987890;28;20133;-76
2021/03/20 10:28:55;;;;;;;;;;;;;;;4.32;39.23;102050.91;4971317;28;20134;-75
2021/03/20 10:31:22;;;;;;;4.05;1.25;;;;;;;4.57;39.87;102049.75;4978277;28;19926;-74
2021/03/20 10:34:01;;;;;;;3.10;1.10;;;;;;;5.13;38.36;102042.09;4980325;28;20080;-74
2021/03/20 10:36:40;;;;;;;9.73;2.00;;;;;;;5.64;37.65;102036.16;4980037;28;20038;-76
2021/03/20 10:39:26;;;;;;;5.10;1.20;;;;;;;5.29;37.51;102034.94;4976589;28;20058;-74
2021/03/20 10:41:58;;;;;;;2.65;1.30;;;;;;;5.18;37.46;102042.03;4965375;28;20060;-76
2021/03/20 10:44:30;;;;;;;6.60;0.98;;;;;;;5.15;37.31;102042.09;4942685;28;20050;-74
2021/03/20 10:47:04;;;;;;;3.35;1.20;;;;;;;5.56;36.63;102036.28;4983641;28;20054;-74
2021/03/20 10:49:36;;;;;;;4.28;1.00;;;;;;;5.18;36.59;102032.50;4981965;28;20064;-74
2021/03/20 10:52:03;;;;;;;6.82;1.00;;;;;;;5.23;37.44;102035.03;4975059;28;20077;-76
2021/03/20 10:54:37;;;;;;;2.58;0.95;;;;;;;4.45;38.40;102034.25;4984848;28;20052;-77
2021/03/20 10:57:07;;;;;;;4.55;1.08;;;;;;;5.09;37.20;102022.19;4981034;28;20051;-74
2021/03/20 10:59:40;;;;;;;13.63;2.58;;;;;;;5.08;36.37;102028.25;4978201;28;20426;-76
2021/03/20 11:02:20;;;;;;;8.05;1.30;;;;;;;5.05;37.07;102023.97;5001198;28;20086;-77
2021/03/20 11:04:47;;;;;;;4.10;1.40;;;;;;;5.28;36.82;102014.94;4998579;28;20054;-75
2021/03/20 11:07:17;;;;;;;3.88;0.82;;;;;;;5.33;35.84;102006.16;4958882;28;20050;-76
2021/03/20 11:09:43;;;;;;;4.50;1.50;;;;;;;4.72;36.88;101996.53;4983068;28;20054;-77
2021/03/20 11:12:19;;;;;;;6.90;2.20;;;;;;;4.40;37.57;102004.75;4994694;28;20053;-76
2021/03/20 11:14:51;;;;;;;4.00;1.55;;;;;;;4.13;37.85;102003.31;5000400;28;20061;-75
2021/03/20 11:17:24;;;;;;;3.10;1.25;;;;;;;3.95;37.91;102003.50;4983910;28;20050;-75
2021/03/20 11:20:13;;;;;;;3.60;1.33;;;;;;;4.39;38.01;101994.34;4982817;28;20290;-78
2021/03/20 11:22:42;;;;;;;2.60;1.52;;;;;;;4.48;37.80;101982.06;4999449;28;20128;-77
2021/03/20 11:25:18;;;;;;;6.00;1.90;;;;;;;4.36;38.43;101990.03;4982875;28;20086;-77
2021/03/20 11:27:58;;;;;;;7.30;1.50;;;;;;;4.29;38.35;101985.78;5001082;28;20173;-76
2021/03/20 11:30:30;;;;;;;5.28;1.23;;;;;;;4.46;38.13;101975.16;4969686;28;20054;-76
2021/03/20 11:33:00;;;;;;;5.00;1.90;;;;;;;4.75;41.02;101977.38;4973019;28;20520;-75
2021/03/20 11:35:27;;;;;;;3.17;1.40;;;;;;;4.69;36.93;101980.09;4967297;28;20399;-75
2021/03/20 11:37:59;;;;;;;4.93;1.58;;;;;;;4.55;37.27;101985.47;4999092;28;20064;-76
2021/03/20 11:40:35;;;;;;;4.20;1.23;;;;;;;3.68;38.21;101978.56;4958626;28;20525;-75
2021/03/20 11:43:06;;;;;;;;;;;;;;;4.24;38.75;101972.81;4974888;28;20049;-74
2021/03/20 11:45:38;;;;;;;17.63;1.50;;;;;;;3.84;39.59;101972.34;4991633;28;19929;-77
2021/03/20 11:48:33;;;;;;;12.13;1.80;;;;;;;4.64;38.30;101966.22;4973286;28;20174;-75
2021/03/20 11:51:01;;;;;;;4.93;1.20;;;;;;;4.84;36.87;101966.84;4985923;28;20109;-75
2021/03/20 11:53:41;;;;;;;8.93;1.50;;;;;;;4.52;36.77;101962.91;4966386;28;20772;-75
2021/03/20 11:56:17;;;;;;;4.65;1.52;;;;;;;4.80;35.53;101952.09;4991135;28;20078;-76
2021/03/20 11:59:04;;;;;;;11.27;2.30;;;;;;;5.01;35.75;101940.50;4974059;28;20394;-73
2021/03/20 12:01:33;;;;;;;5.07;1.42;;;;;;;4.53;36.00;101946.38;4997582;28;20148;-75
2021/03/20 12:04:06;;;;;;;4.68;1.70;;;;;;;4.10;38.26;101942.53;4991086;28;20543;-75
2021/03/20 12:06:34;;;;;;;10.07;1.73;;;;;;;4.45;37.98;101935.16;4994885;28;20439;-75
2021/03/20 12:09:02;;;;;;;4.80;1.55;;;;;;;4.52;38.86;101942.03;4977124;28;20050;-74
2021/03/20 12:11:45;;;;;;;5.00;1.70;;;;;;;4.51;37.90;101940.31;4960209;28;20062;-74
2021/03/20 12:14:33;;;;;;;6.75;1.70;;;;;;;4.66;37.05;101927.94;4987213;28;20046;-76